Time;durP1;ratioP1;P1;durP2;ratioP2;P2;SDS_P1;SDS_P2;PMS_P1;PMS_P2;Temp;Humidity;BMP_temperature;BMP_pressure;BME280_temperature;BME280_humidity;BME280_pressure;Samples;Min_cycle;Max_cycle;Signal;HPM_P1;HPM_P2
2024/01/26 00:01:37;;;;;;;11.30;2.20;;;;;;;;;;5032216;28;20037;-57
2024/01/26 00:04:03;;;;;;;12.63;2.73;;;;;;;;;;5033985;28;20026;-59
2024/01/26 00:06:28;;;;;;;13.00;2.60;;;;;;;;;;5032237;28;20040;-57
2024/01/26 00:08:53;;;;;;;9.60;2.30;;;;;;;;;;5032734;28;20079;-56
2024/01/26 00:11:19;;;;;;;11.68;2.42;;;;;;;;;;5030757;28;20033;-57
2024/01/26 00:13:44;;;;;;;13.50;2.60;;;;;;;;;;5033586;28;20013;-57
2024/01/26 00:16:09;;;;;;;13.25;2.78;;;;;;;;;;5029949;28;20041;-56
2024/01/26 00:18:35;;;;;;;11.00;2.72;;;;;;;;;;5017897;28;20029;-57
2024/01/26 00:21:00;;;;;;;13.52;2.33;;;;;;;;;;5023886;28;20327;-57
2024/01/26 00:23:25;;;;;;;13.57;2.80;;;;;;;;;;5045995;28;20444;-57
2024/01/26 00:25:50;;;;;;;16.33;3.20;;;;;;;;;;5043900;28;20044;-57
2024/01/26 00:28:15;;;;;;;11.55;2.30;;;;;;;;;;5024700;28;20448;-57
2024/01/26 00:30:41;;;;;;;12.32;2.63;;;;;;;;;;5024960;28;20057;-57
2024/01/26 00:33:06;;;;;;;13.67;2.33;;;;;;;;;;5021015;28;20022;-57
2024/01/26 00:35:31;;;;;;;10.97;2.40;;;;;;;;;;5016682;28;20566;-57
2024/01/26 00:37:56;;;;;;;11.85;2.67;;;;;;;;;;5026132;28;20029;-57
2024/01/26 00:40:21;;;;;;;13.00;2.70;;;;;;;;;;5024535;28;20034;-57
2024/01/26 00:42:47;;;;;;;10.97;2.57;;;;;;;;;;5029176;28;20017;-58
2024/01/26 00:45:12;;;;;;;15.82;3.10;;;;;;;;;;5029242;28;20021;-57
2024/01/26 00:47:38;;;;;;;12.77;2.43;;;;;;;;;;5031624;28;20101;-56
2024/01/26 00:50:04;;;;;;;11.73;2.67;;;;;;;;;;5032386;28;20029;-59
2024/01/26 00:52:29;;;;;;;12.18;2.65;;;;;;;;;;5032199;28;20523;-57
2024/01/26 00:54:54;;;;;;;12.85;2.80;;;;;;;;;;5020950;28;20017;-58
2024/01/26 00:57:19;;;;;;;13.45;2.58;;;;;;;;;;5030321;28;20416;-57
2024/01/26 00:59:44;;;;;;;14.50;3.23;;;;;;;;;;5021723;28;20048;-57
2024/01/26 01:02:09;;;;;;;17.30;2.80;;;;;;;;;;5022951;28;20036;-56
2024/01/26 01:04:35;;;;;;;9.98;2.83;;;;;;;;;;5022074;28;20099;-57
2024/01/26 01:07:00;;;;;;;14.32;2.80;;;;;;;;;;5024157;28;20040;-57
2024/01/26 01:09:25;;;;;;;14.07;2.90;;;;;;;;;;5031909;28;20493;-57
2024/01/26 01:11:50;;;;;;;16.45;2.97;;;;;;;;;;5031439;28;20037;-57
2024/01/26 01:14:18;;;;;;;12.95;3.30;;;;;;;;;;5030705;28;20057;-57
2024/01/26 01:16:45;;;;;;;13.68;2.97;;;;;;;;;;5030664;28;20112;-59
2024/01/26 01:19:10;;;;;;;11.38;2.90;;;;;;;;;;5022385;28;20511;-56
2024/01/26 01:21:35;;;;;;;15.77;2.70;;;;;;;;;;5031682;28;20025;-56
2024/01/26 01:24:01;;;;;;;10.13;3.35;;;;;;;;;;5025329;28;20028;-56
2024/01/26 01:26:27;;;;;;;18.50;3.00;;;;;;;;;;5026532;28;20706;-57
2024/01/26 01:28:52;;;;;;;12.00;2.80;;;;;;;;;;5024795;28;20017;-57
2024/01/26 01:31:17;;;;;;;12.75;3.25;;;;;;;;;;5023335;28;20100;-57
2024/01/26 01:33:43;;;;;;;12.25;2.75;;;;;;;;;;5011307;28;20390;-58
2024/01/26 01:36:08;;;;;;;12.07;2.70;;;;;;;;;;5012002;28;20033;-56
2024/01/26 01:38:33;;;;;;;9.48;2.65;;;;;;;;;;5025173;28;20114;-57
2024/01/26 01:40:58;;;;;;;14.60;2.83;;;;;;;;;;5028080;28;20359;-57
2024/01/26 01:43:24;;;;;;;12.63;3.20;;;;;;;;;;5026678;28;20025;-58
2024/01/26 01:45:49;;;;;;;18.20;3.13;;;;;;;;;;5021521;28;20040;-58
2024/01/26 01:48:14;;;;;;;14.30;2.90;;;;;;;;;;5021386;28;20108;-57
2024/01/26 01:50:40;;;;;;;15.10;3.07;;;;;;;;;;5023063;28;20029;-57
2024/01/26 01:53:07;;;;;;;15.27;3.03;;;;;;;;;;5030074;28;20018;-57
2024/01/26 01:55:33;;;;;;;15.55;2.85;;;;;;;;;;5025049;28;20367;-58
2024/01/26 01:57:58;;;;;;;15.45;3.00;;;;;;;;;;5028270;28;20022;-56
2024/01/26 02:00:24;;;;;;;14.70;3.33;;;;;;;;;;5028641;28;20017;-56
2024/01/26 02:02:49;;;;;;;12.93;2.92;;;;;;;;;;5013137;28;20095;-57
2024/01/26 02:05:15;;;;;;;15.98;3.65;;;;;;;;;;5011960;28;20018;-57
2024/01/26 02:07:41;;;;;;;16.13;2.97;;;;;;;;;;5022277;28;20209;-57
2024/01/26 02:10:12;;;;;;;11.50;2.95;;;;;;;;;;5012862;28;20509;-56
2024/01/26 02:12:37;;;;;;;17.27;3.95;;;;;;;;;;5021585;28;20025;-58
2024/01/26 02:15:03;;;;;;;13.67;3.10;;;;;;;;;;5025988;28;20017;-59
2024/01/26 02:17:32;;;;;;;18.40;3.55;;;;;;;;;;5029790;28;20017;-57
2024/01/26 02:19:58;;;;;;;15.35;2.80;;;;;;;;;;5016615;28;20411;-57
2024/01/26 02:22:24;;;;;;;12.32;2.95;;;;;;;;;;5033054;28;20029;-56
2024/01/26 02:24:49;;;;;;;10.98;2.70;;;;;;;;;;5029941;28;20054;-57
2024/01/26 02:27:15;;;;;;;15.80;2.87;;;;;;;;;;5030790;28;20025;-57
2024/01/26 02:29:40;;;;;;;14.57;3.03;;;;;;;;;;5021374;28;20124;-57
2024/01/26 02:32:05;;;;;;;17.87;3.10;;;;;;;;;;5026239;28;20035;-57
2024/01/26 02:34:30;;;;;;;17.75;3.85;;;;;;;;;;5029775;28;20432;-57
2024/01/26 02:36:56;;;;;;;12.43;2.93;;;;;;;;;;5030945;28;20028;-57
2024/01/26 02:39:21;;;;;;;13.17;3.03;;;;;;;;;;5028181;28;20404;-58
2024/01/26 02:41:46;;;;;;;14.93;3.10;;;;;;;;;;5029055;28;20029;-56
2024/01/26 02:44:11;;;;;;;15.07;3.00;;;;;;;;;;5020203;28;20040;-56
2024/01/26 02:46:36;;;;;;;18.67;3.40;;;;;;;;;;5014903;28;20021;-56
2024/01/26 02:49:02;;;;;;;18.43;3.07;;;;;;;;;;5031065;28;20060;-57
2024/01/26 02:51:28;;;;;;;18.80;3.00;;;;;;;;;;5027556;28;20084;-57
2024/01/26 02:53:53;;;;;;;14.10;2.85;;;;;;;;;;5027531;28;20025;-58
2024/01/26 02:56:18;;;;;;;15.35;3.70;;;;;;;;;;5025851;28;20044;-59
2024/01/26 02:58:43;;;;;;;15.63;3.47;;;;;;;;;;5037164;28;20024;-58
2024/01/26 03:01:08;;;;;;;16.95;3.17;;;;;;;;;;5044091;28;20137;-57
2024/01/26 03:03:33;;;;;;;15.60;3.00;;;;;;;;;;5033873;28;20107;-58
2024/01/26 03:05:58;;;;;;;11.70;2.60;;;;;;;;;;5029622;28;20040;-57
2024/01/26 03:08:24;;;;;;;17.35;3.13;;;;;;;;;;5023843;28;20052;-56
2024/01/26 03:10:50;;;;;;;13.05;3.03;;;;;;;;;;5034381;28;20025;-57
2024/01/26 03:13:16;;;;;;;13.70;2.78;;;;;;;;;;5041481;28;20025;-58
2024/01/26 03:15:41;;;;;;;15.60;3.08;;;;;;;;;;5035943;28;20021;-57
2024/01/26 03:18:06;;;;;;;12.32;3.13;;;;;;;;;;5051583;28;20014;-58
2024/01/26 03:20:31;;;;;;;18.80;3.10;;;;;;;;;;5055035;28;20035;-59
2024/01/26 03:22:56;;;;;;;13.30;3.15;;;;;;;;;;5040092;28;20087;-58
2024/01/26 03:25:22;;;;;;;12.60;2.67;;;;;;;;;;5028416;28;20039;-59
2024/01/26 03:27:47;;;;;;;17.00;3.63;;;;;;;;;;5019770;28;20030;-59
2024/01/26 03:30:12;;;;;;;14.47;3.80;;;;;;;;;;5029831;28;20088;-58
2024/01/26 03:32:38;;;;;;;16.48;3.22;;;;;;;;;;5021339;28;20029;-56
2024/01/26 03:35:05;;;;;;;12.50;2.85;;;;;;;;;;5014443;28;20386;-58
2024/01/26 03:37:30;;;;;;;12.95;2.75;;;;;;;;;;5016521;28;20037;-58
2024/01/26 03:39:55;;;;;;;12.70;2.70;;;;;;;;;;5028008;28;20055;-57
2024/01/26 03:42:20;;;;;;;14.90;3.35;;;;;;;;;;5032188;28;20540;-58
2024/01/26 03:44:45;;;;;;;15.05;2.65;;;;;;;;;;5032022;28;20037;-57
2024/01/26 03:47:10;;;;;;;13.57;3.33;;;;;;;;;;5033836;28;20022;-58
2024/01/26 03:49:39;;;;;;;15.67;3.50;;;;;;;;;;5019803;28;20482;-57
2024/01/26 03:52:04;;;;;;;15.18;3.03;;;;;;;;;;5017917;28;20033;-58
2024/01/26 03:54:29;;;;;;;15.88;4.65;;;;;;;;;;5023861;28;20037;-57
2024/01/26 03:56:55;;;;;;;16.95;3.75;;;;;;;;;;5026881;28;20044;-57
2024/01/26 03:59:20;;;;;;;17.43;3.90;;;;;;;;;;5018427;28;20038;-56
2024/01/26 04:01:46;;;;;;;19.73;3.93;;;;;;;;;;5027989;28;20022;-57
2024/01/26 04:04:12;;;;;;;15.68;3.28;;;;;;;;;;5029747;28;20088;-57
2024/01/26 04:06:40;;;;;;;15.00;3.80;;;;;;;;;;5033919;28;20094;-57
2024/01/26 04:09:06;;;;;;;13.65;3.53;;;;;;;;;;5027186;28;20018;-57
2024/01/26 04:11:31;;;;;;;14.98;3.55;;;;;;;;;;5020821;28;20025;-58
2024/01/26 04:13:56;;;;;;;14.20;3.17;;;;;;;;;;5032233;28;20413;-57
2024/01/26 04:16:21;;;;;;;18.45;3.63;;;;;;;;;;5032493;28;20091;-58
2024/01/26 04:18:47;;;;;;;16.67;3.70;;;;;;;;;;5035289;28;20029;-58
2024/01/26 04:21:12;;;;;;;13.80;3.13;;;;;;;;;;5031270;28;20029;-57
2024/01/26 04:23:37;;;;;;;19.67;4.33;;;;;;;;;;5033432;28;20029;-58
2024/01/26 04:26:04;;;;;;;14.60;3.30;;;;;;;;;;5052991;28;20029;-58
2024/01/26 04:28:29;;;;;;;13.57;3.20;;;;;;;;;;5054635;28;20041;-58
2024/01/26 04:30:54;;;;;;;14.63;3.22;;;;;;;;;;5046361;28;20033;-59
2024/01/26 04:33:20;;;;;;;13.57;3.13;;;;;;;;;;5040755;28;20502;-56
2024/01/26 04:35:45;;;;;;;10.63;2.90;;;;;;;;;;5030419;28;20041;-57
2024/01/26 04:38:10;;;;;;;12.03;3.13;;;;;;;;;;5025278;28;20086;-57
2024/01/26 04:40:38;;;;;;;14.77;3.00;;;;;;;;;;5032068;28;20025;-57
2024/01/26 04:43:03;;;;;;;14.82;3.20;;;;;;;;;;5030736;28;20488;-59
2024/01/26 04:45:28;;;;;;;11.65;3.28;;;;;;;;;;5032789;28;20032;-59
2024/01/26 04:47:53;;;;;;;16.38;3.47;;;;;;;;;;5030845;28;20444;-58
2024/01/26 04:50:18;;;;;;;11.68;4.05;;;;;;;;;;5033003;28;20022;-56
2024/01/26 04:52:44;;;;;;;15.20;3.13;;;;;;;;;;5032930;28;20025;-56
2024/01/26 04:55:09;;;;;;;14.93;3.47;;;;;;;;;;5032761;28;20029;-59
2024/01/26 04:57:35;;;;;;;14.98;3.40;;;;;;;;;;5031230;28;20018;-57
2024/01/26 05:00:00;;;;;;;14.40;3.15;;;;;;;;;;5032513;28;20048;-57
2024/01/26 05:02:25;;;;;;;17.30;3.50;;;;;;;;;;5025118;28;20478;-57
2024/01/26 05:04:50;;;;;;;12.43;3.33;;;;;;;;;;5028800;28;20108;-57
2024/01/26 05:07:15;;;;;;;17.10;3.33;;;;;;;;;;5030509;28;20033;-57
2024/01/26 05:09:40;;;;;;;13.52;3.05;;;;;;;;;;5032203;28;20335;-58
2024/01/26 05:12:06;;;;;;;17.08;3.47;;;;;;;;;;5031943;28;20029;-57
2024/01/26 05:14:32;;;;;;;15.02;3.92;;;;;;;;;;5031682;28;20030;-56
2024/01/26 05:16:57;;;;;;;16.00;3.70;;;;;;;;;;5029727;28;20028;-57
2024/01/26 05:19:22;;;;;;;16.37;3.40;;;;;;;;;;5031154;28;20017;-57
2024/01/26 05:21:47;;;;;;;16.08;4.00;;;;;;;;;;5022504;28;20033;-57
2024/01/26 05:24:12;;;;;;;18.50;4.30;;;;;;;;;;5023405;28;20486;-57
2024/01/26 05:26:38;;;;;;;21.50;4.50;;;;;;;;;;5024649;28;20079;-57
2024/01/26 05:29:03;;;;;;;13.13;3.78;;;;;;;;;;5027016;28;20156;-57
2024/01/26 05:31:28;;;;;;;19.93;3.90;;;;;;;;;;5022508;28;20139;-57
2024/01/26 05:33:54;;;;;;;17.42;3.42;;;;;;;;;;5030275;28;20021;-58
2024/01/26 05:36:19;;;;;;;17.52;3.60;;;;;;;;;;5028443;28;20762;-58
2024/01/26 05:38:44;;;;;;;16.35;3.42;;;;;;;;;;5019654;28;20025;-56
2024/01/26 05:41:09;;;;;;;16.17;4.20;;;;;;;;;;5021352;28;20553;-58
2024/01/26 05:43:35;;;;;;;16.30;3.22;;;;;;;;;;5031503;28;20053;-57
2024/01/26 05:46:00;;;;;;;17.48;3.40;;;;;;;;;;5026144;28;20031;-58
2024/01/26 05:48:25;;;;;;;15.07;3.80;;;;;;;;;;5027916;28;20497;-58
2024/01/26 05:50:53;;;;;;;19.83;3.10;;;;;;;;;;5026653;28;20033;-58
2024/01/26 05:53:18;;;;;;;15.18;3.63;;;;;;;;;;5024551;28;21388;-57
2024/01/26 05:55:43;;;;;;;11.20;2.95;;;;;;;;;;5020813;28;20032;-58
2024/01/26 05:58:08;;;;;;;13.27;3.00;;;;;;;;;;5022595;28;20030;-59
2024/01/26 06:00:34;;;;;;;13.97;3.63;;;;;;;;;;5029256;28;20049;-57
2024/01/26 06:02:59;;;;;;;16.55;3.17;;;;;;;;;;5024045;28;20049;-57
2024/01/26 06:05:24;;;;;;;13.73;2.95;;;;;;;;;;5030774;28;20714;-58
2024/01/26 06:07:49;;;;;;;17.10;3.30;;;;;;;;;;5031430;28;20032;-57
2024/01/26 06:10:15;;;;;;;16.27;3.00;;;;;;;;;;5012667;28;20449;-58
2024/01/26 06:12:40;;;;;;;11.57;3.20;;;;;;;;;;5021963;28;20529;-58
2024/01/26 06:15:08;;;;;;;9.07;2.50;;;;;;;;;;5032727;28;20722;-56
2024/01/26 06:17:33;;;;;;;11.68;2.97;;;;;;;;;;5030407;28;20481;-57
2024/01/26 06:19:58;;;;;;;16.53;3.10;;;;;;;;;;5027686;28;20032;-58
2024/01/26 06:22:24;;;;;;;13.00;3.10;;;;;;;;;;5028107;28;20067;-58
2024/01/26 06:24:49;;;;;;;15.50;3.00;;;;;;;;;;5027694;28;20029;-58
2024/01/26 06:27:15;;;;;;;11.05;2.78;;;;;;;;;;5028731;28;20026;-58
2024/01/26 06:29:40;;;;;;;11.88;2.97;;;;;;;;;;5039691;28;20030;-59
2024/01/26 06:32:05;;;;;;;17.38;3.72;;;;;;;;;;5045906;28;20050;-58
2024/01/26 06:34:31;;;;;;;13.45;3.20;;;;;;;;;;5055721;28;20107;-58
2024/01/26 06:36:56;;;;;;;11.80;2.53;;;;;;;;;;5042360;28;20025;-57
2024/01/26 06:39:21;;;;;;;14.02;3.20;;;;;;;;;;5023065;28;20018;-57
2024/01/26 06:41:46;;;;;;;14.77;3.10;;;;;;;;;;5044688;28;20022;-58
2024/01/26 06:44:14;;;;;;;18.13;3.30;;;;;;;;;;5048250;28;20029;-58
2024/01/26 06:46:39;;;;;;;13.82;3.85;;;;;;;;;;5041201;28;20488;-58
2024/01/26 06:49:04;;;;;;;15.18;2.90;;;;;;;;;;5040027;28;20030;-62
2024/01/26 06:51:29;;;;;;;13.10;3.43;;;;;;;;;;5034101;28;20455;-58
2024/01/26 06:53:56;;;;;;;17.75;3.05;;;;;;;;;;5026814;28;20043;-57
2024/01/26 06:56:21;;;;;;;;;;;;;;;;;;5032386;28;20017;-59
2024/01/26 06:58:46;;;;;;;9.90;2.47;;;;;;;;;;5031279;28;19915;-57
2024/01/26 07:01:11;;;;;;;13.10;2.65;;;;;;;;;;5024029;28;20033;-57
2024/01/26 07:03:37;;;;;;;11.23;3.10;;;;;;;;;;5022498;28;20574;-58
2024/01/26 07:06:02;;;;;;;11.15;2.70;;;;;;;;;;5029722;28;20496;-59
2024/01/26 07:08:27;;;;;;;9.10;2.60;;;;;;;;;;5029292;28;20482;-57
2024/01/26 07:10:52;;;;;;;10.52;2.92;;;;;;;;;;5024415;28;20480;-58
2024/01/26 07:13:18;;;;;;;17.00;2.80;;;;;;;;;;5027501;28;20473;-57
2024/01/26 07:15:43;;;;;;;11.57;2.55;;;;;;;;;;5016725;28;20466;-57
2024/01/26 07:18:08;;;;;;;13.70;2.50;;;;;;;;;;5025401;28;20417;-57
2024/01/26 07:20:33;;;;;;;16.13;3.30;;;;;;;;;;5025348;28;20440;-58
2024/01/26 07:22:58;;;;;;;18.57;3.17;;;;;;;;;;5022384;28;20045;-58
2024/01/26 07:25:24;;;;;;;11.15;3.05;;;;;;;;;;5028456;28;20455;-59
2024/01/26 07:27:49;;;;;;;16.50;3.30;;;;;;;;;;5026625;28;20061;-58
2024/01/26 07:30:17;;;;;;;13.77;3.33;;;;;;;;;;5026536;28;20587;-58
2024/01/26 07:32:42;;;;;;;13.50;3.10;;;;;;;;;;5025712;28;20083;-57
2024/01/26 07:35:07;;;;;;;17.30;3.13;;;;;;;;;;5022463;28;20037;-56
2024/01/26 07:37:32;;;;;;;18.50;3.77;;;;;;;;;;5026530;28;20022;-58
2024/01/26 07:39:58;;;;;;;14.73;2.97;;;;;;;;;;5023359;28;20115;-57
2024/01/26 07:42:23;;;;;;;12.70;2.83;;;;;;;;;;5022983;28;20032;-58
2024/01/26 07:44:48;;;;;;;14.20;2.72;;;;;;;;;;5022460;28;20037;-57
2024/01/26 07:47:13;;;;;;;11.57;2.90;;;;;;;;;;5025240;28;20022;-57
2024/01/26 07:49:38;;;;;;;12.67;2.90;;;;;;;;;;5029108;28;20384;-57
2024/01/26 07:52:03;;;;;;;13.27;3.15;;;;;;;;;;5029079;28;20029;-58
2024/01/26 07:54:29;;;;;;;19.98;3.50;;;;;;;;;;5028342;28;20045;-58
2024/01/26 07:56:55;;;;;;;11.60;2.63;;;;;;;;;;5021765;28;20034;-57
2024/01/26 07:59:20;;;;;;;11.55;3.05;;;;;;;;;;5031503;28;20030;-56
2024/01/26 08:01:45;;;;;;;15.90;3.33;;;;;;;;;;5039956;28;20020;-56
2024/01/26 08:04:11;;;;;;;13.90;3.20;;;;;;;;;;5038142;28;20033;-58
2024/01/26 08:06:36;;;;;;;12.23;3.10;;;;;;;;;;5037949;28;20086;-58
2024/01/26 08:09:02;;;;;;;10.00;3.28;;;;;;;;;;5030841;28;20017;-57
2024/01/26 08:11:27;;;;;;;13.18;3.28;;;;;;;;;;5032943;28;20030;-58
2024/01/26 08:13:52;;;;;;;16.63;3.60;;;;;;;;;;5032726;28;20018;-58
2024/01/26 08:16:17;;;;;;;13.63;3.47;;;;;;;;;;5024140;28;20018;-59
2024/01/26 08:18:42;;;;;;;11.77;3.13;;;;;;;;;;5026212;28;20022;-56
2024/01/26 08:21:08;;;;;;;10.55;2.92;;;;;;;;;;5030828;28;20025;-58
2024/01/26 08:23:33;;;;;;;11.48;2.78;;;;;;;;;;5028413;28;20082;-56
2024/01/26 08:25:58;;;;;;;13.13;3.63;;;;;;;;;;5024731;28;20040;-56
2024/01/26 08:28:23;;;;;;;13.63;3.03;;;;;;;;;;5032254;28;20474;-57
2024/01/26 08:30:48;;;;;;;13.63;3.08;;;;;;;;;;5028269;28;20202;-58
2024/01/26 08:33:14;;;;;;;14.18;3.58;;;;;;;;;;5031589;28;20030;-57
2024/01/26 08:35:39;;;;;;;11.90;3.60;;;;;;;;;;5033857;28;20444;-57
2024/01/26 08:38:04;;;;;;;17.27;3.57;;;;;;;;;;5037424;28;20147;-60
2024/01/26 08:40:29;;;;;;;11.97;3.10;;;;;;;;;;5038645;28;20028;-56
2024/01/26 08:42:54;;;;;;;13.60;3.37;;;;;;;;;;5034617;28;20462;-58
2024/01/26 08:45:19;;;;;;;9.65;2.80;;;;;;;;;;5032288;28;20091;-57
2024/01/26 08:47:45;;;;;;;12.00;3.03;;;;;;;;;;5033082;28;20024;-58
2024/01/26 08:50:11;;;;;;;9.57;3.00;;;;;;;;;;5033731;28;20432;-57
2024/01/26 08:52:36;;;;;;;10.63;2.85;;;;;;;;;;5034277;28;20064;-57
2024/01/26 08:55:02;;;;;;;12.27;3.47;;;;;;;;;;5035425;28;20025;-57
2024/01/26 08:57:27;;;;;;;14.50;3.83;;;;;;;;;;5031486;28;20022;-57
2024/01/26 08:59:53;;;;;;;14.27;2.97;;;;;;;;;;5033603;28;20079;-58
2024/01/26 09:02:19;;;;;;;14.02;3.47;;;;;;;;;;5033831;28;20021;-57
2024/01/26 09:04:44;;;;;;;11.23;3.30;;;;;;;;;;5033490;28;20037;-57
2024/01/26 09:07:09;;;;;;;14.43;3.50;;;;;;;;;;5033042;28;20025;-57
2024/01/26 09:09:34;;;;;;;13.43;2.85;;;;;;;;;;5033169;28;20386;-58
2024/01/26 09:11:59;;;;;;;11.30;3.00;;;;;;;;;;5031169;28;20425;-57
2024/01/26 09:14:25;;;;;;;14.80;4.00;;;;;;;;;;5031637;28;20037;-58
2024/01/26 09:16:53;;;;;;;16.10;3.67;;;;;;;;;;5032934;28;20100;-58
2024/01/26 09:19:18;;;;;;;13.13;3.50;;;;;;;;;;5032650;28;20451;-58
2024/01/26 09:21:44;;;;;;;16.15;3.42;;;;;;;;;;5032673;28;20049;-58
2024/01/26 09:24:09;;;;;;;12.20;3.78;;;;;;;;;;5032475;28;20033;-57
2024/01/26 09:26:34;;;;;;;13.48;3.60;;;;;;;;;;5032692;28;20030;-57
2024/01/26 09:29:00;;;;;;;12.33;3.30;;;;;;;;;;5031937;28;20486;-56
2024/01/26 09:31:25;;;;;;;16.08;3.53;;;;;;;;;;5029680;28;20492;-57
2024/01/26 09:33:50;;;;;;;14.50;3.03;;;;;;;;;;5031632;28;20036;-57
2024/01/26 09:36:15;;;;;;;12.10;3.50;;;;;;;;;;5030205;28;20045;-58
2024/01/26 09:38:40;;;;;;;19.98;3.65;;;;;;;;;;5031505;28;20036;-57
2024/01/26 09:41:06;;;;;;;10.10;3.50;;;;;;;;;;5031242;28;20021;-57
2024/01/26 09:43:31;;;;;;;10.10;3.47;;;;;;;;;;5031836;28;20041;-58
2024/01/26 09:45:56;;;;;;;12.82;3.58;;;;;;;;;;5031034;28;21011;-58
2024/01/26 09:48:22;;;;;;;13.68;3.67;;;;;;;;;;5027068;28;20470;-57
2024/01/26 09:50:51;;;;;;;10.87;3.10;;;;;;;;;;5024966;28;20056;-58
2024/01/26 09:53:16;;;;;;;13.65;3.58;;;;;;;;;;5031371;28;20017;-58
2024/01/26 09:55:41;;;;;;;10.10;3.33;;;;;;;;;;5035119;28;20100;-59
2024/01/26 09:58:07;;;;;;;12.05;3.42;;;;;;;;;;5041363;28;20017;-57
2024/01/26 10:00:32;;;;;;;15.82;3.97;;;;;;;;;;5042358;28;20029;-57
2024/01/26 10:02:57;;;;;;;11.17;3.37;;;;;;;;;;5038546;28;20875;-58
2024/01/26 10:05:22;;;;;;;11.30;3.28;;;;;;;;;;5041564;28;20060;-58
2024/01/26 10:07:47;;;;;;;12.70;3.17;;;;;;;;;;5034226;28;20013;-57
2024/01/26 10:10:13;;;;;;;9.87;3.00;;;;;;;;;;5023019;28;20104;-58
2024/01/26 10:12:40;;;;;;;10.35;3.10;;;;;;;;;;5029040;28;20095;-57
2024/01/26 10:15:10;;;;;;;12.35;3.33;;;;;;;;;;5031449;28;20024;-57
2024/01/26 10:17:35;;;;;;;11.23;3.50;;;;;;;;;;5029188;28;20037;-58
2024/01/26 10:20:08;;;;;;;14.07;3.83;;;;;;;;;;5030257;28;20025;-57
2024/01/26 10:22:37;;;;;;;13.15;3.47;;;;;;;;;;5031131;28;20017;-57
2024/01/26 10:25:02;;;;;;;12.15;3.17;;;;;;;;;;5031257;28;20346;-57
2024/01/26 10:27:28;;;;;;;11.45;3.40;;;;;;;;;;5030631;28;20021;-58
2024/01/26 10:29:54;;;;;;;12.50;3.28;;;;;;;;;;5032293;28;20059;-56
2024/01/26 10:32:20;;;;;;;10.15;2.88;;;;;;;;;;5034139;28;20375;-57
2024/01/26 10:34:47;;;;;;;11.65;3.20;;;;;;;;;;5037128;28;20052;-56
2024/01/26 10:37:13;;;;;;;13.77;3.30;;;;;;;;;;5037682;28;20366;-58
2024/01/26 10:39:40;;;;;;;12.77;3.20;;;;;;;;;;5034378;28;20124;-57
2024/01/26 10:42:05;;;;;;;12.65;3.13;;;;;;;;;;5033399;28;20009;-59
2024/01/26 10:44:33;;;;;;;12.75;3.35;;;;;;;;;;5032201;28;20227;-58
2024/01/26 10:46:59;;;;;;;14.02;2.95;;;;;;;;;;5029874;28;20055;-58
2024/01/26 10:49:25;;;;;;;9.85;3.10;;;;;;;;;;5024927;28;20122;-59
2024/01/26 10:51:50;;;;;;;11.10;3.00;;;;;;;;;;5021675;28;20528;-57
2024/01/26 10:54:16;;;;;;;13.43;3.20;;;;;;;;;;5030095;28;20021;-57
2024/01/26 10:56:42;;;;;;;;;;;;;;;;;;5031016;28;20033;-56
2024/01/26 10:59:09;;;;;;;13.05;3.28;;;;;;;;;;5029607;28;19967;-56
2024/01/26 11:01:35;;;;;;;10.93;2.90;;;;;;;;;;5031450;28;20021;-57
2024/01/26 11:04:01;;;;;;;12.90;3.10;;;;;;;;;;5030499;28;20109;-58
2024/01/26 11:06:26;;;;;;;12.75;3.20;;;;;;;;;;5029257;28;20104;-58
2024/01/26 11:08:55;;;;;;;9.35;3.42;;;;;;;;;;5030491;28;20014;-57
2024/01/26 11:11:20;;;;;;;15.07;3.08;;;;;;;;;;5030459;28;20034;-57
2024/01/26 11:13:50;;;;;;;14.27;3.65;;;;;;;;;;5030576;28;20096;-58
2024/01/26 11:16:17;;;;;;;15.10;3.50;;;;;;;;;;5037007;28;20112;-57
2024/01/26 11:18:42;;;;;;;13.65;3.30;;;;;;;;;;5031227;28;20061;-57
2024/01/26 11:21:17;;;;;;;14.30;3.27;;;;;;;;;;5030946;28;20401;-58
2024/01/26 11:23:44;;;;;;;10.25;3.72;;;;;;;;;;5028633;28;20393;-58
2024/01/26 11:26:14;;;;;;;11.10;3.20;;;;;;;;;;5030351;28;20025;-57
2024/01/26 11:28:39;;;;;;;11.27;2.85;;;;;;;;;;5032509;28;20100;-56
2024/01/26 11:31:04;;;;;;;13.47;3.40;;;;;;;;;;5031363;28;20129;-58
2024/01/26 11:33:37;;;;;;;10.80;2.70;;;;;;;;;;5033754;28;20395;-58
2024/01/26 11:36:03;;;;;;;11.73;3.15;;;;;;;;;;5048955;28;20026;-58
2024/01/26 11:38:29;;;;;;;12.63;3.15;;;;;;;;;;5048924;28;20091;-59
2024/01/26 11:40:55;;;;;;;11.60;3.43;;;;;;;;;;5051022;28;20033;-57
2024/01/26 11:43:23;;;;;;;11.27;2.83;;;;;;;;;;5048048;28;20013;-58
2024/01/26 11:45:48;;;;;;;10.27;2.25;;;;;;;;;;5048251;28;20025;-58
2024/01/26 11:48:13;;;;;;;12.90;2.43;;;;;;;;;;5045398;28;20033;-58
2024/01/26 11:50:43;;;;;;;11.23;3.10;;;;;;;;;;5032646;28;20033;-57
2024/01/26 11:53:09;;;;;;;10.05;2.78;;;;;;;;;;5028529;28;20025;-57
2024/01/26 11:55:35;;;;;;;11.98;3.10;;;;;;;;;;5033353;28;20025;-57
2024/01/26 11:58:01;;;;;;;13.30;3.20;;;;;;;;;;5032870;28;20021;-58
2024/01/26 12:00:27;;;;;;;11.35;2.85;;;;;;;;;;5033505;28;20045;-57
2024/01/26 12:02:52;;;;;;;10.98;3.13;;;;;;;;;;5032258;28;20040;-56
2024/01/26 12:05:18;;;;;;;9.00;2.80;;;;;;;;;;5033813;28;20021;-57
2024/01/26 12:07:43;;;;;;;11.05;2.70;;;;;;;;;;5032906;28;20492;-57
2024/01/26 12:10:09;;;;;;;13.23;2.47;;;;;;;;;;5032690;28;20053;-57
2024/01/26 12:12:34;;;;;;;10.40;2.28;;;;;;;;;;5033368;28;20032;-58
2024/01/26 12:15:02;;;;;;;7.45;2.17;;;;;;;;;;5032845;28;20017;-58
2024/01/26 12:17:27;;;;;;;11.55;2.63;;;;;;;;;;5032843;28;20096;-57
2024/01/26 12:19:54;;;;;;;7.18;1.73;;;;;;;;;;5033149;28;20113;-57
2024/01/26 12:22:19;;;;;;;6.55;1.73;;;;;;;;;;5033264;28;20033;-58
2024/01/26 12:24:44;;;;;;;3.00;0.50;;;;;;;;;;5030656;28;20032;-58
2024/01/26 12:27:10;;;;;;;1.27;0.40;;;;;;;;;;5033597;28;20021;-57
2024/01/26 12:29:35;;;;;;;1.92;0.50;;;;;;;;;;5031202;28;20409;-57
2024/01/26 12:32:04;;;;;;;1.98;0.50;;;;;;;;;;5029216;28;20112;-59
2024/01/26 12:34:29;;;;;;;1.80;0.60;;;;;;;;;;5031479;28;20025;-58
2024/01/26 12:36:59;;;;;;;0.70;0.30;;;;;;;;;;5029303;28;20470;-57
2024/01/26 12:39:24;;;;;;;0.98;0.40;;;;;;;;;;5024846;28;20513;-60
2024/01/26 12:41:49;;;;;;;1.27;0.50;;;;;;;;;;5031247;28;20101;-58
2024/01/26 12:44:15;;;;;;;1.77;0.50;;;;;;;;;;5032059;28;20025;-58
2024/01/26 12:46:41;;;;;;;1.90;0.45;;;;;;;;;;5032947;28;20105;-58
2024/01/26 12:49:06;;;;;;;1.88;0.45;;;;;;;;;;5032774;28;20042;-59
2024/01/26 12:51:31;;;;;;;1.85;0.50;;;;;;;;;;5031144;28;20575;-59
2024/01/26 12:53:56;;;;;;;1.93;0.50;;;;;;;;;;5029346;28;20025;-57
2024/01/26 12:56:21;;;;;;;2.03;0.50;;;;;;;;;;5032075;28;20029;-59
2024/01/26 12:58:47;;;;;;;1.90;0.60;;;;;;;;;;5033790;28;20087;-57
2024/01/26 13:01:20;;;;;;;2.40;0.50;;;;;;;;;;5030922;28;20033;-57
2024/01/26 13:03:45;;;;;;;;;;;;;;;;;;5032149;28;20031;-58
2024/01/26 13:06:10;;;;;;;1.80;0.55;;;;;;;;;;5032477;28;19905;-58
2024/01/26 13:08:35;;;;;;;3.85;0.68;;;;;;;;;;5030537;28;20405;-58
2024/01/26 13:11:01;;;;;;;1.48;0.60;;;;;;;;;;5029936;28;20149;-58
2024/01/26 13:13:27;;;;;;;2.73;0.80;;;;;;;;;;5032872;28;20125;-57
2024/01/26 13:15:52;;;;;;;2.83;0.75;;;;;;;;;;5032637;28;20463;-57
2024/01/26 13:18:18;;;;;;;5.00;1.40;;;;;;;;;;5035136;28;20024;-58
2024/01/26 13:20:43;;;;;;;4.07;1.00;;;;;;;;;;5034174;28;20508;-58
2024/01/26 13:23:09;;;;;;;2.58;0.60;;;;;;;;;;5034178;28;20030;-58
2024/01/26 13:25:34;;;;;;;1.30;0.50;;;;;;;;;;5033495;28;20512;-57
2024/01/26 13:27:59;;;;;;;2.75;0.52;;;;;;;;;;5036411;28;20021;-58
2024/01/26 13:30:24;;;;;;;3.13;0.80;;;;;;;;;;5033149;28;20036;-58
2024/01/26 13:32:49;;;;;;;2.28;0.70;;;;;;;;;;5036374;28;20022;-59
2024/01/26 13:35:14;;;;;;;6.38;1.10;;;;;;;;;;5035980;28;20079;-57
2024/01/26 13:37:39;;;;;;;3.20;0.97;;;;;;;;;;5032019;28;20109;-60
2024/01/26 13:40:05;;;;;;;2.00;0.70;;;;;;;;;;5032068;28;20032;-58
2024/01/26 13:42:31;;;;;;;3.75;0.90;;;;;;;;;;5019870;28;20547;-58
2024/01/26 13:44:56;;;;;;;5.28;1.25;;;;;;;;;;5019644;28;20485;-58
2024/01/26 13:47:24;;;;;;;6.17;1.60;;;;;;;;;;5025995;28;20044;-58
2024/01/26 13:49:54;;;;;;;3.63;1.25;;;;;;;;;;5029071;28;20064;-59
2024/01/26 13:52:19;;;;;;;3.78;1.10;;;;;;;;;;5022535;28;20030;-59
2024/01/26 13:54:44;;;;;;;2.93;0.90;;;;;;;;;;5025467;28;20178;-59
2024/01/26 13:57:09;;;;;;;3.08;0.80;;;;;;;;;;5028352;28;20070;-57
2024/01/26 13:59:35;;;;;;;3.25;0.80;;;;;;;;;;5028865;28;20182;-57
2024/01/26 14:02:00;;;;;;;1.93;0.70;;;;;;;;;;5027720;28;20052;-57
2024/01/26 14:04:25;;;;;;;2.65;0.80;;;;;;;;;;5028272;28;20021;-58
2024/01/26 14:06:53;;;;;;;2.53;0.83;;;;;;;;;;5026530;28;20040;-58
2024/01/26 14:09:18;;;;;;;4.10;0.70;;;;;;;;;;5028347;28;20141;-58
2024/01/26 14:11:43;;;;;;;2.70;0.87;;;;;;;;;;5026299;28;20191;-57
2024/01/26 14:14:08;;;;;;;2.33;0.80;;;;;;;;;;5009620;28;20093;-58
2024/01/26 14:16:33;;;;;;;1.43;0.60;;;;;;;;;;5009897;28;20018;-59
2024/01/26 14:18:59;;;;;;;2.70;0.53;;;;;;;;;;5007469;28;20495;-58
2024/01/26 14:21:24;;;;;;;4.10;0.60;;;;;;;;;;5023105;28;20463;-58
2024/01/26 14:23:49;;;;;;;1.67;0.60;;;;;;;;;;5026529;28;20025;-58